Williamsport Regional Airport
KIPT : now visible

Airfield :











YOU CAN JOIN US ON...

 
LOGIN :

Register | Disclaimer

   EN    FR    IT 

 









Legend :    VFR   Marginal VFR   IFR   Intensive IFR   Very Intensive IFR
Visi :
Ceiling :
>= 8 km
>= 3000ft
5 to 8 km
1000 to 3000 ft
1500m to 5 km
500 to 1000 ft
800 to 1500m
200 to 500 ft
< 800m
< 200 ft
Symbols :   Thunderstorms  Fog  Heavy snow  Heavy precipitations  Wind > 20 kt






- Airport Elevation : 529 ft
- IATA code : IPT


KIPT - Williamsport Regional

CURRENT METAR :
  • 120254Z 29011G19KT 10SM FEW050 M02/M13 A3048 RMK AO2 SLP327 60000 T10221133 53025

EXPIRED METARs :
  • 120154Z 28010KT 10SM OVC055 M01/M12 A3045 RMK AO2 SNB10E22 SLP316 P0000 T10111122
  • 120054Z 27013G19KT 10SM OVC060 M01/M11 A3042 RMK AO2 SLP307 T10061111

TAF KIPT
Valid from the 12 at 04:00 until the 13 at 00:00 UTC


120338Z 1204/1224 29011G19KT P6SM FEW050
FM120600 28005KT P6SM SKC



MET'MAP, your aeronautical weather chart ! - Copyright ORBIFLY December 2007 - Disclaimer

ORBIFLY MET'MAP TEAM :

Programming & Development : Alexandra Zaïnal
Concept & original design : Baudouin d'Aumeries
Assistance for programming : Marc-Olivier Méhu
Technical & hardware support : Manuel Goepfert

Contact : metmap@orbifly.com




SOURCES & CREDITS :

   NOAA       Earth
Advisory